Time;durP1;ratioP1;P1;durP2;ratioP2;P2;SDS_P1;SDS_P2;PMS_P1;PMS_P2;Temp;Humidity;BMP_temperature;BMP_pressure;BME280_temperature;BME280_humidity;BME280_pressure;Samples;Min_cycle;Max_cycle;Signal;HPM_P1;HPM_P2
2022/10/18 00:02:18;;;;;;;13.63;5.50;;;;;;;9.75;nan;94894.88;4933149;29;20058;-70
2022/10/18 00:04:46;;;;;;;8.32;4.43;;;;;;;9.79;nan;94889.41;4933451;29;20046;-70
2022/10/18 00:07:12;;;;;;;11.60;4.77;;;;;;;9.79;nan;94894.91;4933044;29;20403;-70
2022/10/18 00:09:39;;;;;;;8.63;4.35;;;;;;;9.77;nan;94895.28;4933463;29;20400;-71
2022/10/18 00:12:06;;;;;;;9.30;4.10;;;;;;;9.82;nan;94904.31;4933234;29;20503;-70
2022/10/18 00:14:33;;;;;;;9.93;4.38;;;;;;;9.84;nan;94896.47;4933375;29;20052;-72
2022/10/18 00:17:00;;;;;;;13.43;5.47;;;;;;;9.73;nan;94894.47;4933552;29;20044;-71
2022/10/18 00:19:27;;;;;;;10.53;5.90;;;;;;;9.56;nan;94897.94;4916152;29;20056;-71
2022/10/18 00:21:55;;;;;;;9.27;4.78;;;;;;;9.53;nan;94895.97;4933281;29;20040;-70
2022/10/18 00:24:22;;;;;;;11.40;5.47;;;;;;;9.59;nan;94895.22;4932850;29;20061;-69
2022/10/18 00:26:48;;;;;;;9.60;5.05;;;;;;;9.69;nan;94893.69;4933121;29;20058;-70
2022/10/18 00:29:15;;;;;;;11.60;5.53;;;;;;;9.73;nan;94891.75;4932954;29;20070;-70
2022/10/18 00:31:43;;;;;;;10.30;5.00;;;;;;;9.75;nan;94894.88;4933164;29;20050;-70
2022/10/18 00:34:12;;;;;;;8.73;4.78;;;;;;;9.80;nan;94897.25;4932883;29;20052;-70
2022/10/18 00:36:40;;;;;;;11.40;5.40;;;;;;;9.82;nan;94891.41;4933107;29;20050;-71
2022/10/18 00:39:12;;;;;;;9.18;5.10;;;;;;;9.98;nan;94896.53;4932843;29;20052;-70
2022/10/18 00:41:39;;;;;;;10.80;5.65;;;;;;;9.97;nan;94889.47;4932784;29;20066;-70
2022/10/18 00:44:09;;;;;;;11.03;5.13;;;;;;;9.57;nan;94892.06;4932946;29;20046;-70
2022/10/18 00:46:38;;;;;;;11.05;5.00;;;;;;;9.54;nan;94892.84;4932778;29;20056;-70
2022/10/18 00:49:12;;;;;;;11.43;4.75;;;;;;;9.84;nan;94891.00;4915894;29;20040;-69
2022/10/18 00:51:43;;;;;;;9.32;4.68;;;;;;;9.85;nan;94893.34;4932612;29;20054;-70
2022/10/18 00:54:12;;;;;;;8.70;4.63;;;;;;;9.79;nan;94890.19;4925357;29;138594;-70
2022/10/18 00:56:39;;;;;;;11.50;4.57;;;;;;;9.74;nan;94898.81;4930967;29;20432;-70
2022/10/18 00:59:06;;;;;;;10.07;4.32;;;;;;;9.91;nan;94899.25;4934144;29;20047;-70
2022/10/18 01:01:33;;;;;;;9.80;4.57;;;;;;;9.97;nan;94893.00;4934140;29;20044;-71
2022/10/18 01:04:00;;;;;;;11.27;4.20;;;;;;;9.94;nan;94882.81;4934438;29;20508;-70
2022/10/18 01:06:28;;;;;;;11.27;4.57;;;;;;;10.02;nan;94886.38;4934136;29;20402;-70
2022/10/18 01:09:08;;;;;;;8.50;4.00;;;;;;;10.05;nan;94884.78;4937862;29;20043;-70
2022/10/18 01:11:54;;;;;;;9.70;3.92;;;;;;;10.15;nan;94895.00;4927489;29;20419;-70
2022/10/18 01:14:58;;;;;;;8.05;4.50;;;;;;;10.15;nan;94893.03;4934614;29;20048;-70
2022/10/18 01:17:41;;;;;;;8.48;4.00;;;;;;;10.03;nan;94889.88;4901782;29;20727;-70
2022/10/18 01:20:18;;;;;;;12.88;4.45;;;;;;;10.05;nan;94893.81;4933923;29;20505;-70
2022/10/18 01:22:52;;;;;;;8.40;4.20;;;;;;;10.17;nan;94898.91;4934246;29;20040;-70
2022/10/18 01:25:37;;;;;;;52.47;27.98;;;;;;;10.28;nan;94895.41;4933897;29;20062;-70
2022/10/18 01:28:21;;;;;;;14.32;6.20;;;;;;;10.24;nan;94898.16;4934003;29;20371;-70
2022/10/18 01:31:13;;;;;;;9.30;4.50;;;;;;;10.30;nan;94896.63;4926216;29;20047;-71
2022/10/18 01:33:50;;;;;;;12.40;4.97;;;;;;;10.26;nan;94901.31;4933285;29;20727;-71
2022/10/18 01:36:22;;;;;;;13.20;4.43;;;;;;;10.39;nan;94896.25;4933592;29;20047;-70
2022/10/18 01:38:54;;;;;;;9.57;4.30;;;;;;;10.41;nan;94893.91;4934155;29;20090;-70
2022/10/18 01:41:23;;;;;;;10.35;4.35;;;;;;;10.46;nan;94892.72;4933325;29;20043;-70
2022/10/18 01:43:55;;;;;;;10.77;4.38;;;;;;;10.54;nan;94897.03;4933711;29;20054;-70
2022/10/18 01:46:24;;;;;;;8.27;4.32;;;;;;;10.55;nan;94895.88;4933438;29;20155;-70
2022/10/18 01:48:52;;;;;;;9.80;4.90;;;;;;;10.35;nan;94898.22;4933626;29;20050;-70
2022/10/18 01:51:27;;;;;;;7.65;4.25;;;;;;;10.33;nan;94895.06;4933169;29;20051;-70
2022/10/18 01:53:55;;;;;;;11.48;5.07;;;;;;;10.08;nan;94895.78;4933589;29;20036;-71
2022/10/18 01:56:44;;;;;;;11.05;5.30;;;;;;;10.08;nan;94894.97;4931755;29;20052;-70
2022/10/18 01:59:39;;;;;;;9.98;4.90;;;;;;;10.19;nan;94888.34;4933169;29;20054;-70
2022/10/18 02:02:12;;;;;;;10.90;5.30;;;;;;;10.21;nan;94885.22;4929748;29;20046;-69
2022/10/18 02:04:53;;;;;;;10.50;5.20;;;;;;;10.30;nan;94885.66;4933203;29;20062;-70
2022/10/18 02:07:31;;;;;;;10.30;5.10;;;;;;;10.36;nan;94883.28;4932766;29;20050;-71
2022/10/18 02:10:28;;;;;;;11.75;5.03;;;;;;;10.35;nan;94882.53;4933626;29;20052;-70
2022/10/18 02:12:56;;;;;;;10.98;4.80;;;;;;;10.25;nan;94875.03;4922299;29;20857;-70
2022/10/18 02:15:30;;;;;;;12.47;4.80;;;;;;;10.18;nan;94883.25;4932961;29;20051;-71
2022/10/18 02:17:57;;;;;;;13.20;5.40;;;;;;;10.07;nan;94869.50;4933055;29;20043;-70
2022/10/18 02:20:27;;;;;;;10.20;5.72;;;;;;;10.16;nan;94880.91;4932608;29;20046;-70
2022/10/18 02:22:56;;;;;;;11.00;5.10;;;;;;;10.17;nan;94867.97;4932472;29;20098;-70
2022/10/18 02:25:29;;;;;;;12.55;4.85;;;;;;;10.21;nan;94871.50;4932566;29;20511;-70
2022/10/18 02:27:56;;;;;;;9.93;4.77;;;;;;;10.25;nan;94869.53;4933346;29;20047;-70
2022/10/18 02:30:31;;;;;;;10.85;5.10;;;;;;;10.25;nan;94864.06;4932363;29;24883;-70
2022/10/18 02:33:07;;;;;;;10.02;5.30;;;;;;;10.32;nan;94861.38;4933007;29;20375;-70
2022/10/18 02:35:40;;;;;;;13.63;5.00;;;;;;;10.39;nan;94861.34;4902389;29;20811;-70
2022/10/18 02:38:10;;;;;;;9.73;5.60;;;;;;;10.27;nan;94852.69;4932557;29;20039;-69
2022/10/18 02:40:37;;;;;;;12.97;5.63;;;;;;;10.46;nan;94855.06;4932674;29;20044;-70
2022/10/18 02:43:05;;;;;;;13.07;5.70;;;;;;;10.14;nan;94846.78;4932278;29;20400;-70
2022/10/18 02:45:32;;;;;;;11.05;5.50;;;;;;;10.35;nan;94866.06;4932733;29;20044;-70
2022/10/18 02:47:58;;;;;;;12.02;5.75;;;;;;;10.39;nan;94850.38;4932684;29;20049;-71
2022/10/18 02:50:25;;;;;;;10.80;5.40;;;;;;;10.35;nan;94860.56;4932296;29;20054;-70
2022/10/18 02:52:52;;;;;;;12.60;5.93;;;;;;;10.41;nan;94855.47;4932154;29;20542;-70
2022/10/18 02:55:19;;;;;;;10.60;5.95;;;;;;;10.39;nan;94857.84;4930197;29;20519;-70
2022/10/18 02:57:45;;;;;;;13.20;5.82;;;;;;;10.44;nan;94860.16;4932542;29;20043;-70
2022/10/18 03:00:13;;;;;;;10.05;5.57;;;;;;;10.45;nan;94861.75;4931669;29;20039;-70
2022/10/18 03:02:40;;;;;;;10.55;5.80;;;;;;;10.53;nan;94868.81;4932550;29;20040;-71
2022/10/18 03:05:07;;;;;;;11.03;5.87;;;;;;;10.39;nan;94863.31;4931748;29;20058;-70
2022/10/18 03:07:33;;;;;;;13.07;5.72;;;;;;;10.39;nan;94863.31;4932350;29;20055;-70
2022/10/18 03:10:00;;;;;;;12.00;5.95;;;;;;;10.46;nan;94873.50;4915645;29;20056;-71
2022/10/18 03:12:27;;;;;;;12.10;5.50;;;;;;;10.43;nan;94877.06;4932009;29;20046;-70
2022/10/18 03:14:54;;;;;;;12.70;6.07;;;;;;;10.33;nan;94871.16;4932326;29;20052;-71
2022/10/18 03:17:21;;;;;;;12.20;5.90;;;;;;;10.47;nan;94875.09;4914918;29;20056;-70
2022/10/18 03:19:47;;;;;;;11.63;5.57;;;;;;;10.40;nan;94873.09;4932120;29;20048;-71
2022/10/18 03:22:14;;;;;;;14.77;6.40;;;;;;;10.47;nan;94875.09;4931651;29;20062;-70
2022/10/18 03:24:41;;;;;;;12.20;6.00;;;;;;;10.47;nan;94872.34;4932073;29;20050;-70
2022/10/18 03:27:08;;;;;;;11.82;6.10;;;;;;;10.48;nan;94871.94;4914910;29;20054;-70
2022/10/18 03:29:34;;;;;;;13.70;6.30;;;;;;;10.39;nan;94875.06;4931889;29;20048;-70
2022/10/18 03:32:01;;;;;;;13.82;5.80;;;;;;;10.43;nan;94879.78;4932137;29;20043;-71
2022/10/18 03:34:28;;;;;;;11.50;5.90;;;;;;;10.55;nan;94871.94;4930767;29;21390;-70
2022/10/18 03:36:56;;;;;;;12.10;6.10;;;;;;;10.57;nan;94882.53;4931485;29;20031;-71
2022/10/18 03:39:26;;;;;;;11.98;5.90;;;;;;;10.60;nan;94879.00;4914594;29;20098;-70
2022/10/18 03:41:53;;;;;;;13.83;5.83;;;;;;;10.67;nan;94878.25;4931921;29;20055;-70
2022/10/18 03:44:20;;;;;;;11.00;5.93;;;;;;;10.74;nan;94892.72;4931504;29;20051;-71
2022/10/18 03:46:46;;;;;;;16.10;6.00;;;;;;;10.73;nan;94888.41;4932085;29;20048;-71
2022/10/18 03:49:13;;;;;;;10.20;5.90;;;;;;;10.76;nan;94890.38;4931514;29;20039;-70
2022/10/18 03:51:40;;;;;;;12.25;6.13;;;;;;;10.72;nan;94891.56;4931946;29;20054;-71
2022/10/18 03:54:07;;;;;;;11.17;6.33;;;;;;;10.62;nan;94892.34;4911111;29;20383;-70
2022/10/18 03:56:33;;;;;;;13.63;6.32;;;;;;;10.61;nan;94896.28;4891148;29;20634;-71
2022/10/18 03:59:01;;;;;;;14.02;6.07;;;;;;;10.63;nan;94893.94;4893222;29;20490;-70
2022/10/18 04:01:28;;;;;;;10.70;5.82;;;;;;;10.67;nan;94892.75;4893979;29;20794;-70
2022/10/18 04:03:55;;;;;;;11.10;6.32;;;;;;;10.76;nan;94889.59;4901661;29;20040;-71
2022/10/18 04:06:22;;;;;;;12.57;5.87;;;;;;;10.84;nan;94893.91;4901308;29;20078;-71
2022/10/18 04:08:48;;;;;;;11.15;6.03;;;;;;;10.75;nan;94891.56;4912829;29;20048;-71
2022/10/18 04:11:15;;;;;;;16.10;5.70;;;;;;;10.82;nan;94895.47;4912309;29;20044;-70
2022/10/18 04:13:42;;;;;;;49.45;28.85;;;;;;;10.66;nan;94893.13;4901442;29;20045;-71
2022/10/18 04:16:09;;;;;;;15.10;7.53;;;;;;;10.53;nan;94898.22;4907368;29;20432;-70
2022/10/18 04:18:36;;;;;;;18.03;9.20;;;;;;;10.36;nan;94900.56;4903408;29;20059;-71
2022/10/18 04:21:03;;;;;;;13.52;6.75;;;;;;;10.37;nan;94902.13;4912517;29;20066;-71
2022/10/18 04:23:29;;;;;;;28.45;15.48;;;;;;;10.38;nan;94900.16;4911863;29;20198;-71
2022/10/18 04:25:58;;;;;;;43.13;24.92;;;;;;;10.38;nan;94898.22;4912723;29;20056;-71
2022/10/18 04:28:25;;;;;;;46.17;25.10;;;;;;;10.32;nan;94894.28;4910432;29;20046;-71
2022/10/18 04:30:52;;;;;;;18.27;9.60;;;;;;;10.34;nan;94900.16;4893998;29;20494;-71
2022/10/18 04:33:19;;;;;;;22.40;11.98;;;;;;;10.42;nan;94902.91;4894455;29;20074;-70
2022/10/18 04:35:46;;;;;;;14.40;7.78;;;;;;;10.30;nan;94901.31;4911581;29;20040;-71
2022/10/18 04:38:13;;;;;;;14.52;6.13;;;;;;;10.37;nan;94896.63;4911884;29;20044;-71
2022/10/18 04:40:40;;;;;;;13.77;8.27;;;;;;;10.33;nan;94906.03;4911355;29;20052;-71
2022/10/18 04:43:07;;;;;;;11.27;6.90;;;;;;;10.24;nan;94902.84;4912181;29;20044;-71
2022/10/18 04:45:34;;;;;;;10.50;6.50;;;;;;;10.21;nan;94901.69;4912485;29;20048;-71
2022/10/18 04:48:01;;;;;;;12.82;7.00;;;;;;;10.27;nan;94902.88;4902189;29;20047;-71
2022/10/18 04:50:28;;;;;;;12.55;6.70;;;;;;;10.24;nan;94898.16;4884119;29;20051;-71
2022/10/18 04:52:54;;;;;;;12.23;7.60;;;;;;;10.19;nan;94896.56;4916708;29;20040;-71
2022/10/18 04:55:21;;;;;;;14.40;8.00;;;;;;;10.18;nan;94910.66;4943082;29;20111;-71
2022/10/18 04:57:48;;;;;;;11.77;6.38;;;;;;;10.14;nan;94904.38;4943740;29;20122;-71
2022/10/18 05:00:15;;;;;;;17.30;7.10;;;;;;;10.12;nan;94898.50;4937742;29;20493;-69
2022/10/18 05:02:42;;;;;;;11.07;5.63;;;;;;;10.00;nan;94905.94;4934030;29;20058;-71
2022/10/18 05:05:08;;;;;;;11.68;6.35;;;;;;;10.02;nan;94897.34;4933923;29;20102;-70
2022/10/18 05:07:37;;;;;;;14.37;7.97;;;;;;;10.00;nan;94896.94;4934509;29;20051;-72
2022/10/18 05:10:04;;;;;;;13.65;7.47;;;;;;;9.89;nan;94893.38;4934066;29;20055;-70
2022/10/18 05:12:31;;;;;;;13.13;7.40;;;;;;;9.83;nan;94900.41;4933959;29;20039;-72
2022/10/18 05:14:58;;;;;;;15.50;8.50;;;;;;;9.88;nan;94897.28;4934196;29;20046;-72
2022/10/18 05:17:25;;;;;;;17.77;7.78;;;;;;;9.84;nan;94894.53;4933360;29;20047;-71
2022/10/18 05:19:52;;;;;;;19.23;9.40;;;;;;;9.79;nan;94906.63;4916425;29;20047;-72
2022/10/18 05:22:19;;;;;;;14.82;7.25;;;;;;;9.75;nan;94900.38;4932916;29;20047;-71
2022/10/18 05:24:45;;;;;;;15.52;7.60;;;;;;;9.69;nan;94898.38;4934064;29;20046;-69
2022/10/18 05:27:12;;;;;;;19.10;8.20;;;;;;;9.60;nan;94899.53;4932798;29;20052;-70
2022/10/18 05:29:39;;;;;;;19.13;8.57;;;;;;;9.62;nan;94904.63;4916418;29;20043;-69
2022/10/18 05:32:06;;;;;;;15.30;7.73;;;;;;;9.59;nan;94891.69;4916073;29;20047;-69
2022/10/18 05:34:32;;;;;;;14.30;8.00;;;;;;;9.56;nan;94892.47;4933112;29;20044;-70
2022/10/18 05:36:59;;;;;;;19.75;10.02;;;;;;;9.52;nan;94891.69;4933206;29;20103;-69
2022/10/18 05:39:26;;;;;;;18.55;9.18;;;;;;;9.45;nan;94894.38;4932540;29;20054;-69
2022/10/18 05:41:53;;;;;;;16.80;9.95;;;;;;;9.51;nan;94895.56;4932769;29;20062;-69
2022/10/18 05:44:20;;;;;;;17.47;9.57;;;;;;;9.50;nan;94899.50;4915569;29;20067;-69
2022/10/18 05:46:47;;;;;;;16.27;8.68;;;;;;;9.46;nan;94904.94;4916016;29;20055;-69
2022/10/18 05:49:14;;;;;;;17.95;9.25;;;;;;;9.26;nan;94898.19;4932066;29;20054;-69
2022/10/18 05:51:41;;;;;;;17.63;9.07;;;;;;;9.16;nan;94897.75;4915976;29;20043;-70
2022/10/18 05:54:11;;;;;;;17.55;9.32;;;;;;;8.97;nan;94896.06;4932584;29;20044;-68
2022/10/18 05:56:38;;;;;;;22.20;10.47;;;;;;;9.09;nan;94900.41;4933478;29;20052;-68
2022/10/18 05:59:10;;;;;;;19.35;9.85;;;;;;;9.13;nan;94901.22;4930034;29;20043;-68
2022/10/18 06:01:39;;;;;;;20.77;10.52;;;;;;;9.09;nan;94907.84;4930789;29;20046;-68
2022/10/18 06:04:07;;;;;;;20.90;9.57;;;;;;;9.22;nan;94903.66;4932353;28;20044;-67
2022/10/18 06:06:33;;;;;;;21.75;10.38;;;;;;;9.35;nan;94906.84;4933359;29;20383;-67
2022/10/18 06:09:02;;;;;;;21.47;10.17;;;;;;;9.45;nan;94902.59;4933074;29;20048;-67
2022/10/18 06:11:29;;;;;;;19.83;9.52;;;;;;;9.51;nan;94912.78;4932605;29;20646;-68
2022/10/18 06:13:56;;;;;;;19.50;9.95;;;;;;;9.61;nan;94908.53;4933398;29;20424;-69
2022/10/18 06:16:25;;;;;;;16.85;9.05;;;;;;;9.75;nan;94919.56;4916335;29;20058;-68
2022/10/18 06:18:58;;;;;;;22.27;10.52;;;;;;;9.88;nan;94916.47;4933590;29;20046;-68
2022/10/18 06:21:26;;;;;;;20.70;10.20;;;;;;;9.93;nan;94913.34;4933050;29;20050;-68
2022/10/18 06:23:55;;;;;;;22.83;10.57;;;;;;;10.04;nan;94907.91;4933360;29;20043;-68
2022/10/18 06:26:23;;;;;;;18.83;9.90;;;;;;;10.35;nan;94904.47;4933061;29;20048;-68
2022/10/18 06:28:50;;;;;;;19.52;10.05;;;;;;;10.58;nan;94908.81;4933365;29;20047;-68
2022/10/18 06:31:17;;;;;;;16.67;8.88;;;;;;;10.53;nan;94903.72;4932594;29;20039;-68
2022/10/18 06:33:44;;;;;;;18.53;9.23;;;;;;;10.55;nan;94902.16;4933124;29;20058;-68
2022/10/18 06:36:17;;;;;;;19.73;9.57;;;;;;;10.68;nan;94910.75;4932428;29;20054;-68
2022/10/18 06:38:44;;;;;;;19.80;9.65;;;;;;;10.91;nan;94904.88;4932954;29;20046;-68
2022/10/18 06:41:11;;;;;;;16.55;8.85;;;;;;;11.13;nan;94896.63;4932219;29;20074;-68
2022/10/18 06:43:38;;;;;;;16.55;8.63;;;;;;;11.06;nan;94911.16;4915865;29;20046;-68
2022/10/18 06:46:06;;;;;;;16.87;8.87;;;;;;;11.54;nan;94909.88;4932414;29;20042;-68
2022/10/18 06:48:35;;;;;;;15.48;8.30;;;;;;;11.71;nan;94909.06;4933120;29;20054;-69
2022/10/18 06:51:04;;;;;;;16.52;8.57;;;;;;;12.22;nan;94909.63;4932884;29;20483;-68
2022/10/18 06:53:33;;;;;;;29.80;15.25;;;;;;;12.02;nan;94916.81;4914976;29;20314;-68
2022/10/18 06:56:02;;;;;;;20.33;9.65;;;;;;;12.16;nan;94911.22;4932473;29;20098;-68
2022/10/18 06:58:29;;;;;;;13.50;7.27;;;;;;;14.46;nan;94911.78;4931682;29;20830;-68
2022/10/18 07:00:56;;;;;;;13.07;7.45;;;;;;;16.15;nan;94913.22;4913629;29;20043;-68
2022/10/18 07:03:23;;;;;;;12.32;6.50;;;;;;;17.91;nan;94913.84;4932173;29;20054;-68
2022/10/18 07:05:50;;;;;;;10.93;6.28;;;;;;;18.91;nan;94915.66;4932713;29;20055;-69
2022/10/18 07:08:17;;;;;;;13.18;6.70;;;;;;;18.67;nan;94906.84;4932045;29;20493;-69
2022/10/18 07:10:53;;;;;;;12.07;6.70;;;;;;;18.82;nan;94910.03;4932275;29;20055;-69
2022/10/18 07:13:21;;;;;;;12.73;6.95;;;;;;;19.58;nan;94920.25;4918703;29;20412;-69
2022/10/18 07:16:08;;;;;;;15.13;7.30;;;;;;;19.60;nan;94925.34;4917622;29;20043;-68
2022/10/18 07:18:38;;;;;;;16.42;8.82;;;;;;;18.35;nan;94926.06;4932673;29;20044;-69
2022/10/18 07:21:11;;;;;;;11.30;6.80;;;;;;;19.10;nan;94928.56;4932151;29;20040;-68
2022/10/18 07:23:40;;;;;;;13.83;7.03;;;;;;;15.03;nan;94933.06;4932312;29;20050;-68
2022/10/18 07:26:13;;;;;;;11.52;7.00;;;;;;;15.80;nan;94936.88;4931967;29;20044;-68
2022/10/18 07:28:40;;;;;;;12.95;7.57;;;;;;;14.76;nan;94930.31;4932262;29;20497;-69
2022/10/18 07:31:08;;;;;;;13.43;7.05;;;;;;;15.87;nan;94928.44;4932039;29;20043;-68
2022/10/18 07:33:36;;;;;;;12.23;6.65;;;;;;;16.24;nan;94923.75;4932177;29;20062;-67
2022/10/18 07:36:08;;;;;;;11.80;6.93;;;;;;;15.91;nan;94929.13;4931536;29;20062;-67
2022/10/18 07:38:35;;;;;;;14.00;7.15;;;;;;;15.80;nan;94927.81;4932243;29;20048;-67
2022/10/18 07:41:05;;;;;;;12.50;7.00;;;;;;;18.02;nan;94925.41;4932295;29;20050;-67
2022/10/18 07:43:33;;;;;;;11.02;5.95;;;;;;;21.08;nan;94927.91;4931196;29;20039;-68
2022/10/18 07:46:02;;;;;;;9.60;5.95;;;;;;;22.06;nan;94919.88;4932356;29;20062;-68
2022/10/18 07:48:29;;;;;;;9.23;5.60;;;;;;;22.64;nan;94920.91;4931520;29;20747;-68
2022/10/18 07:51:00;;;;;;;14.30;5.68;;;;;;;22.79;nan;94923.03;4931968;29;20063;-68
2022/10/18 07:53:28;;;;;;;10.02;5.80;;;;;;;25.48;nan;94935.25;4931439;29;20050;-68
2022/10/18 07:55:59;;;;;;;12.02;5.95;;;;;;;25.65;nan;94923.44;4931819;29;20044;-68
2022/10/18 07:58:30;;;;;;;11.90;5.38;;;;;;;23.96;nan;94921.34;4931327;29;20650;-68
2022/10/18 08:01:01;;;;;;;16.93;6.23;;;;;;;23.22;nan;94932.22;4930073;29;20476;-68
2022/10/18 08:03:28;;;;;;;13.68;7.00;;;;;;;22.35;nan;94932.59;4931385;29;20078;-67
2022/10/18 08:05:54;;;;;;;13.88;8.02;;;;;;;21.98;nan;94934.63;4931729;29;20048;-68
2022/10/18 08:08:22;;;;;;;10.82;6.32;;;;;;;23.13;nan;94931.00;4930767;29;20044;-69
2022/10/18 08:10:49;;;;;;;13.07;5.30;;;;;;;23.88;nan;94932.16;4931609;29;20051;-68
2022/10/18 08:13:16;;;;;;;8.77;4.97;;;;;;;25.02;nan;94929.41;4931034;29;20420;-69
2022/10/18 08:15:43;;;;;;;10.75;5.47;;;;;;;24.09;nan;94921.88;4931500;29;20044;-68
2022/10/18 08:18:10;;;;;;;13.10;5.18;;;;;;;24.95;nan;94924.97;4930535;29;20035;-68
2022/10/18 08:20:44;;;;;;;9.27;4.95;;;;;;;23.98;nan;94921.66;4931277;29;20058;-68
2022/10/18 08:23:11;;;;;;;13.15;6.57;;;;;;;23.66;nan;94926.06;4933955;29;20048;-67
2022/10/18 08:25:38;;;;;;;12.70;5.80;;;;;;;23.23;nan;94928.94;4935281;29;20046;-68
2022/10/18 08:28:06;;;;;;;11.00;5.57;;;;;;;22.30;nan;94934.03;4934167;29;20050;-68
2022/10/18 08:30:34;;;;;;;8.38;5.15;;;;;;;22.51;nan;94939.88;4934918;29;20051;-67
2022/10/18 08:33:02;;;;;;;9.52;5.22;;;;;;;21.73;nan;94936.47;4934621;29;20047;-67
2022/10/18 08:35:30;;;;;;;8.48;5.18;;;;;;;21.32;nan;94930.16;4933545;29;20394;-67
2022/10/18 08:37:57;;;;;;;9.43;5.30;;;;;;;23.60;nan;94933.56;4934996;29;20499;-67
2022/10/18 08:40:26;;;;;;;9.77;5.22;;;;;;;24.93;nan;94927.47;4934175;29;20051;-67
2022/10/18 08:43:06;;;;;;;7.22;4.82;;;;;;;27.49;nan;94922.28;4917978;29;20040;-68
2022/10/18 08:45:37;;;;;;;7.30;4.78;;;;;;;27.89;nan;94912.00;4933589;29;21602;-68
2022/10/18 08:48:20;;;;;;;7.80;4.28;;;;;;;27.08;nan;94906.34;4933956;29;20052;-68
2022/10/18 08:50:48;;;;;;;4.87;3.03;;;;;;;27.69;nan;94904.44;4934680;29;20067;-68
2022/10/18 08:53:47;;;;;;;9.07;3.88;;;;;;;26.31;nan;94907.91;4933378;29;20058;-67
2022/10/18 08:56:20;;;;;;;5.00;3.42;;;;;;;26.40;nan;94904.94;4933899;29;20062;-67
2022/10/18 08:58:46;;;;;;;6.15;3.20;;;;;;;26.31;nan;94908.66;4934794;29;20059;-67
2022/10/18 09:01:19;;;;;;;5.68;2.90;;;;;;;27.16;nan;94912.25;4933578;29;20058;-67
2022/10/18 09:03:52;;;;;;;8.63;2.97;;;;;;;27.19;nan;94911.28;4934417;29;20047;-66
2022/10/18 09:06:38;;;;;;;6.90;2.85;;;;;;;27.03;nan;94904.25;4933613;29;20059;-66
2022/10/18 09:09:19;;;;;;;10.07;2.75;;;;;;;26.33;nan;94919.44;4933412;29;20043;-65
2022/10/18 09:11:53;;;;;;;4.85;2.40;;;;;;;27.44;nan;94904.03;4934396;29;20047;-66
2022/10/18 09:14:49;;;;;;;4.72;2.50;;;;;;;27.05;nan;94907.34;4933692;29;20388;-67
2022/10/18 09:17:49;;;;;;;5.43;2.90;;;;;;;25.55;nan;94905.94;4917944;29;20420;-67
2022/10/18 09:20:47;;;;;;;5.70;3.00;;;;;;;26.22;nan;94900.41;4933676;29;20048;-67
2022/10/18 09:23:28;;;;;;;6.55;3.08;;;;;;;26.54;nan;94905.31;4932797;29;20092;-68
2022/10/18 09:26:06;;;;;;;7.18;2.72;;;;;;;26.93;nan;94907.75;4933436;29;20046;-67
2022/10/18 09:28:52;;;;;;;5.70;2.90;;;;;;;27.27;nan;94909.56;4933304;29;20812;-67
2022/10/18 09:31:31;;;;;;;7.70;3.10;;;;;;;29.64;nan;94909.38;4933018;29;20063;-67
2022/10/18 09:34:19;;;;;;;6.70;2.80;;;;;;;28.68;nan;94906.59;4933811;29;20048;-67
2022/10/18 09:36:50;;;;;;;10.63;3.10;;;;;;;27.40;nan;94895.03;4932892;29;20202;-67
2022/10/18 09:39:36;;;;;;;6.38;2.70;;;;;;;28.21;nan;94901.34;4933014;29;20060;-67
2022/10/18 09:42:16;;;;;;;6.85;2.78;;;;;;;29.53;nan;94898.09;4933207;29;20050;-67
2022/10/18 09:44:50;;;;;;;8.57;2.80;;;;;;;30.89;nan;94901.13;4933767;29;20058;-67
2022/10/18 09:47:33;;;;;;;6.60;2.55;;;;;;;32.43;nan;94899.81;4932873;29;20444;-68
2022/10/18 09:50:13;;;;;;;7.55;3.05;;;;;;;31.36;nan;94906.66;4916679;29;20401;-68
2022/10/18 09:52:49;;;;;;;6.00;2.75;;;;;;;32.59;nan;94900.91;4932396;29;20425;-68
2022/10/18 09:55:23;;;;;;;7.25;3.05;;;;;;;26.02;nan;94906.81;4933153;29;20069;-68
2022/10/18 09:57:54;;;;;;;6.67;2.70;;;;;;;29.00;nan;94906.38;4933532;29;20043;-67
2022/10/18 10:00:37;;;;;;;7.05;2.53;;;;;;;31.30;nan;94900.28;4932435;29;20051;-68
2022/10/18 10:03:14;;;;;;;9.30;2.33;;;;;;;32.59;nan;94901.69;4932842;29;20519;-67
2022/10/18 10:05:42;;;;;;;7.10;2.50;;;;;;;31.48;nan;94896.03;4933339;29;20070;-67
2022/10/18 10:08:10;;;;;;;9.45;2.45;;;;;;;31.38;nan;94896.31;4932400;29;20128;-67
2022/10/18 10:10:39;;;;;;;7.93;2.37;;;;;;;29.79;nan;94911.97;4933061;29;20078;-67
2022/10/18 10:13:13;;;;;;;8.82;2.50;;;;;;;28.32;nan;94906.25;4932701;29;20047;-67
2022/10/18 10:15:45;;;;;;;6.95;2.40;;;;;;;28.91;nan;94903.78;4933214;29;20051;-67
2022/10/18 10:18:21;;;;;;;7.18;2.60;;;;;;;28.06;nan;94898.72;4932424;29;20056;-67
2022/10/18 10:20:52;;;;;;;8.10;2.70;;;;;;;27.02;nan;94908.31;4933014;29;20044;-67
2022/10/18 10:23:37;;;;;;;7.00;2.60;;;;;;;27.74;nan;94914.19;4932110;29;20035;-66
2022/10/18 10:26:19;;;;;;;7.60;2.70;;;;;;;29.21;nan;94904.06;4932404;29;20043;-66
2022/10/18 10:28:47;;;;;;;7.78;2.60;;;;;;;29.14;nan;94907.41;4932867;29;20050;-66
2022/10/18 10:31:24;;;;;;;8.32;2.50;;;;;;;27.57;nan;94905.63;4930302;29;20047;-67
2022/10/18 10:34:16;;;;;;;8.25;2.40;;;;;;;27.70;nan;94900.34;4933143;29;20058;-67
2022/10/18 10:36:51;;;;;;;8.60;2.67;;;;;;;25.86;nan;94908.13;4932222;29;21866;-67
2022/10/18 10:39:19;;;;;;;9.95;3.08;;;;;;;28.17;nan;94902.84;4932839;29;20044;-67
2022/10/18 10:41:55;;;;;;;11.80;2.50;;;;;;;28.38;nan;94894.97;4933255;29;20102;-66
2022/10/18 10:44:28;;;;;;;7.85;2.58;;;;;;;29.24;nan;94900.22;4931974;29;20050;-67
2022/10/18 10:46:55;;;;;;;6.63;2.35;;;;;;;29.11;nan;94897.09;4933137;29;20043;-67
2022/10/18 10:49:26;;;;;;;21.53;3.40;;;;;;;28.30;nan;94905.97;4932357;29;20069;-66
2022/10/18 10:52:06;;;;;;;11.63;2.70;;;;;;;31.30;nan;94895.38;4932320;29;20047;-66
2022/10/18 10:54:44;;;;;;;7.63;2.50;;;;;;;28.96;nan;94891.72;4932636;29;20054;-67
2022/10/18 10:57:22;;;;;;;8.88;3.10;;;;;;;29.78;nan;94888.56;4932828;29;20050;-66
2022/10/18 10:59:52;;;;;;;12.93;2.70;;;;;;;28.46;nan;94893.19;4932658;29;20039;-66
2022/10/18 11:02:28;;;;;;;6.93;2.47;;;;;;;30.26;nan;94878.03;4932280;29;20055;-66
2022/10/18 11:04:56;;;;;;;7.95;2.47;;;;;;;27.67;nan;94890.84;4932600;29;20050;-66
2022/10/18 11:07:35;;;;;;;9.05;2.45;;;;;;;28.03;nan;94888.47;4932298;29;20043;-66
2022/10/18 11:10:14;;;;;;;6.43;2.60;;;;;;;26.58;nan;94891.81;4919492;29;20053;-66
2022/10/18 11:12:47;;;;;;;9.52;2.95;;;;;;;25.25;nan;94877.16;4931913;29;20758;-66
2022/10/18 11:15:20;;;;;;;9.23;2.73;;;;;;;24.21;nan;94894.81;4931820;29;20043;-66
2022/10/18 11:18:18;;;;;;;9.05;2.90;;;;;;;24.08;nan;94883.09;4932589;29;20046;-66
2022/10/18 11:20:57;;;;;;;7.82;2.85;;;;;;;24.16;nan;94878.66;4931708;29;20797;-65
2022/10/18 11:23:30;;;;;;;6.57;2.80;;;;;;;24.59;nan;94884.81;4931854;29;20051;-65
2022/10/18 11:26:02;;;;;;;7.45;2.85;;;;;;;24.60;nan;94869.50;4932389;29;20043;-66
2022/10/18 11:29:08;;;;;;;9.90;3.30;;;;;;;23.00;nan;94868.84;4931476;29;20649;-65
2022/10/18 11:31:50;;;;;;;9.50;2.90;;;;;;;23.40;nan;94866.94;4902992;29;20662;-66
2022/10/18 11:34:35;;;;;;;10.98;3.40;;;;;;;23.63;nan;94857.75;4931842;29;20070;-66
2022/10/18 11:37:24;;;;;;;8.90;2.83;;;;;;;23.51;nan;94855.97;4932288;29;20043;-65
2022/10/18 11:40:26;;;;;;;10.48;2.95;;;;;;;23.17;nan;94862.88;4931373;29;21520;-66
2022/10/18 11:43:05;;;;;;;7.50;3.30;;;;;;;23.55;nan;94862.16;4912546;29;20391;-66
2022/10/18 11:45:35;;;;;;;9.45;3.42;;;;;;;22.95;nan;94863.88;4931377;29;20066;-66
2022/10/18 11:48:44;;;;;;;9.48;3.47;;;;;;;23.17;nan;94862.88;4931840;29;20139;-66
2022/10/18 11:51:37;;;;;;;21.73;4.20;;;;;;;22.61;nan;94863.09;4930370;29;21498;-66
2022/10/18 11:54:30;;;;;;;8.30;3.30;;;;;;;22.92;nan;94859.25;4932031;29;20118;-67
2022/10/18 11:56:56;;;;;;;9.53;3.23;;;;;;;22.47;nan;94863.75;4933605;29;20407;-67
2022/10/18 11:59:41;;;;;;;10.85;3.30;;;;;;;22.32;nan;94864.41;4935310;29;20520;-66
2022/10/18 12:02:46;;;;;;;9.45;3.22;;;;;;;22.59;nan;94867.59;4917518;29;20042;-66
2022/10/18 12:05:13;;;;;;;9.40;3.50;;;;;;;22.43;nan;94863.16;4924245;29;20055;-66
2022/10/18 12:08:04;;;;;;;9.10;3.13;;;;;;;22.10;nan;94861.78;4920423;29;20408;-66
2022/10/18 12:10:34;;;;;;;8.53;3.47;;;;;;;22.03;nan;94858.53;4919280;29;21439;-66